createdAt,value
2022-12-23T00:00:55.196Z,93.4
2022-12-23T00:03:56.678Z,93.4
2022-12-23T00:06:55.533Z,93.4
2022-12-23T00:09:55.840Z,93.4
2022-12-23T00:12:57.146Z,93.4
2022-12-23T00:15:56.376Z,93.4
2022-12-23T00:18:56.444Z,93.4
2022-12-23T00:21:52.767Z,93.4
2022-12-23T00:24:56.995Z,93.4
2022-12-23T00:27:52.430Z,93.4
2022-12-23T00:30:53.615Z,93.5
2022-12-23T00:33:52.616Z,93.5
2022-12-23T00:36:52.887Z,93.5
2022-12-23T00:40:06.148Z,93.5
2022-12-23T00:42:54.391Z,93.4
2022-12-23T00:45:53.830Z,93.4
2022-12-23T00:48:53.826Z,93.4
2022-12-23T00:51:55.192Z,93.5
2022-12-23T00:54:59.176Z,93.5
2022-12-23T00:57:54.391Z,93.5
2022-12-23T01:00:56.108Z,93.5
2022-12-23T01:03:54.862Z,93.5
2022-12-23T01:06:55.058Z,93.5
2022-12-23T01:09:56.468Z,93.6
2022-12-23T01:12:55.537Z,93.6
2022-12-23T01:15:55.844Z,93.6
2022-12-23T01:18:56.095Z,93.6
2022-12-23T01:21:52.388Z,93.7
2022-12-23T01:24:56.426Z,93.7
2022-12-23T01:27:51.737Z,93.7
2022-12-23T01:30:52.984Z,93.8
2022-12-23T01:33:52.111Z,93.8
2022-12-23T01:36:52.325Z,93.8
2022-12-23T01:39:53.649Z,93.8
2022-12-23T01:42:52.809Z,93.8
2022-12-23T01:45:53.259Z,93.8
2022-12-23T01:48:54.416Z,93.8
2022-12-23T01:51:53.423Z,93.8
2022-12-23T01:54:53.675Z,93.8
2022-12-23T01:57:53.961Z,93.8
2022-12-23T02:00:55.471Z,93.9
2022-12-23T02:03:54.454Z,93.9
2022-12-23T02:06:54.700Z,93.9
2022-12-23T02:09:55.934Z,93.9
2022-12-23T02:12:55.070Z,93.9
2022-12-23T02:16:05.273Z,93.9
2022-12-23T02:18:56.563Z,93.8
2022-12-23T02:21:56.145Z,93.8
2022-12-23T02:24:55.937Z,93.8
2022-12-23T02:27:57.213Z,93.8
2022-12-23T02:30:56.673Z,93.8
2022-12-23T02:33:56.577Z,93.8
2022-12-23T02:36:51.830Z,93.8
2022-12-23T02:39:53.231Z,93.7
2022-12-23T02:42:52.264Z,93.7
2022-12-23T02:45:52.765Z,93.7
2022-12-23T02:48:53.788Z,93.7
2022-12-23T02:51:52.930Z,93.7
2022-12-23T02:54:53.242Z,93.7
2022-12-23T02:57:54.538Z,93.7
2022-12-23T03:00:53.669Z,93.7
2022-12-23T03:03:54.272Z,93.7
2022-12-23T03:06:55.161Z,93.6
2022-12-23T03:09:54.317Z,93.6
2022-12-23T03:12:54.555Z,93.6
2022-12-23T03:15:54.963Z,93.6
2022-12-23T03:18:56.056Z,93.6
2022-12-23T03:21:55.249Z,93.6
2022-12-23T03:24:55.494Z,93.6
2022-12-23T03:27:56.757Z,93.7
2022-12-23T03:30:56.244Z,93.7
2022-12-23T03:33:56.209Z,93.7
2022-12-23T03:36:52.468Z,93.7
2022-12-23T03:39:51.568Z,93.7
2022-12-23T03:42:51.773Z,93.7
2022-12-23T03:45:53.120Z,93.8
2022-12-23T03:48:52.284Z,93.8
2022-12-23T03:51:52.518Z,93.8
2022-12-23T03:54:52.744Z,93.8
2022-12-23T03:57:54.049Z,93.9
2022-12-23T04:00:53.212Z,93.9
2022-12-23T04:03:53.681Z,93.9
2022-12-23T04:06:54.823Z,94
2022-12-23T04:09:53.844Z,94
2022-12-23T04:12:54.130Z,94
2022-12-23T04:15:55.604Z,94.2
2022-12-23T04:18:54.508Z,94.2
2022-12-23T04:21:54.759Z,94.2
2022-12-23T04:24:56.039Z,94.4
2022-12-23T04:27:55.249Z,94.4
2022-12-23T04:30:55.656Z,94.4
2022-12-23T04:33:55.675Z,94.4
2022-12-23T04:36:56.951Z,94.5
2022-12-23T04:39:56.198Z,94.5
2022-12-23T04:42:56.410Z,94.5
2022-12-23T04:45:52.784Z,94.5
2022-12-23T04:48:51.786Z,94.5
2022-12-23T04:51:52.063Z,94.5
2022-12-23T04:54:53.464Z,94.6
2022-12-23T04:57:52.518Z,94.6
2022-12-23T05:00:52.968Z,94.6
2022-12-23T05:03:53.987Z,94.6
2022-12-23T05:06:53.219Z,94.6
2022-12-23T05:09:53.452Z,94.6
2022-12-23T05:12:53.658Z,94.6
2022-12-23T05:15:55.252Z,94.5
2022-12-23T05:18:54.093Z,94.5
2022-12-23T05:21:54.270Z,94.5
2022-12-23T05:24:55.684Z,94.4
2022-12-23T05:27:54.820Z,94.4
2022-12-23T05:30:55.038Z,94.4
2022-12-23T05:34:06.932Z,94.4
2022-12-23T05:36:55.385Z,94.4
2022-12-23T05:39:55.697Z,94.4
2022-12-23T05:42:57.119Z,94.3
2022-12-23T05:45:56.441Z,94.3
2022-12-23T05:48:51.311Z,94.3
2022-12-23T05:51:51.560Z,94.3
2022-12-23T05:54:58.010Z,94.2
2022-12-23T05:57:52.101Z,94.2
2022-12-23T06:00:52.239Z,94.2
2022-12-23T06:03:54.313Z,94.2
2022-12-23T06:06:52.688Z,94.2
2022-12-23T06:09:52.901Z,94.2
2022-12-23T06:12:54.237Z,94.2
2022-12-23T06:15:53.392Z,94.2
2022-12-23T06:18:53.668Z,94.2
2022-12-23T06:21:54.988Z,94.2
2022-12-23T06:24:54.110Z,94.2
2022-12-23T06:27:54.261Z,94.2
2022-12-23T06:30:54.508Z,94.2
2022-12-23T06:33:55.876Z,94.3
2022-12-23T06:36:55.068Z,94.3
2022-12-23T06:39:55.214Z,94.3
2022-12-23T06:42:56.505Z,94.3
2022-12-23T06:45:56.011Z,94.3
2022-12-23T06:48:55.970Z,94.3
2022-12-23T06:51:57.346Z,94.2
2022-12-23T06:54:56.341Z,94.2
2022-12-23T06:57:51.542Z,94.2
2022-12-23T07:00:53.201Z,94.3
2022-12-23T07:03:52.051Z,94.3
2022-12-23T07:06:52.211Z,94.3
2022-12-23T07:09:52.487Z,94.3
2022-12-23T07:12:53.770Z,94.4
2022-12-23T07:15:52.958Z,94.4
2022-12-23T07:18:53.209Z,94.4
2022-12-23T07:21:54.649Z,94.4
2022-12-23T07:24:53.585Z,94.4
2022-12-23T07:27:53.950Z,94.4
2022-12-23T07:30:55.328Z,94.5
2022-12-23T07:33:54.528Z,94.5
2022-12-23T07:36:54.644Z,94.5
2022-12-23T07:39:56.073Z,94.5
2022-12-23T07:42:55.177Z,94.5
2022-12-23T07:46:01.750Z,94.5
2022-12-23T07:48:55.820Z,94.5
2022-12-23T07:51:56.860Z,94.5
2022-12-23T07:54:56.037Z,94.5
2022-12-23T07:57:56.253Z,94.5
2022-12-23T08:00:57.860Z,94.5
2022-12-23T08:03:57.170Z,94.5
2022-12-23T08:06:51.997Z,94.5
2022-12-23T08:10:03.389Z,94.6
2022-12-23T08:12:52.430Z,94.6
2022-12-23T08:15:52.644Z,94.6
2022-12-23T08:18:53.996Z,94.6
2022-12-23T08:21:53.127Z,94.6
2022-12-23T08:24:53.415Z,94.6
2022-12-23T08:27:53.619Z,94.6
2022-12-23T08:30:55.153Z,94.5
2022-12-23T08:33:53.975Z,94.5
2022-12-23T08:36:54.145Z,94.5
2022-12-23T08:39:55.513Z,94.5
2022-12-23T08:42:54.757Z,94.5
2022-12-23T08:45:55.229Z,94.5
2022-12-23T08:48:56.336Z,94.5
2022-12-23T08:51:55.317Z,94.5
2022-12-23T08:54:55.532Z,94.5
2022-12-23T08:57:56.845Z,94.5
2022-12-23T09:00:56.020Z,94.5
2022-12-23T09:03:56.671Z,94.5
2022-12-23T09:06:56.511Z,94.5
2022-12-23T09:09:57.778Z,94.5
2022-12-23T09:12:58.719Z,94.5
2022-12-23T09:15:52.380Z,94.5
2022-12-23T09:18:53.560Z,94.5
2022-12-23T09:21:52.627Z,94.5
2022-12-23T09:24:52.778Z,94.5
2022-12-23T09:27:54.185Z,94.5
2022-12-23T09:30:53.571Z,94.5
2022-12-23T09:33:53.614Z,94.5
2022-12-23T09:36:57.272Z,94.4
2022-12-23T09:39:53.946Z,94.4
2022-12-23T09:42:54.198Z,94.4
2022-12-23T09:45:54.430Z,94.4
2022-12-23T09:48:55.683Z,94.4
2022-12-23T09:51:54.861Z,94.4
2022-12-23T09:54:55.182Z,94.4
2022-12-23T09:57:56.371Z,94.3
2022-12-23T10:00:55.509Z,94.3
2022-12-23T10:03:56.226Z,94.3
2022-12-23T10:07:04.726Z,94.3
2022-12-23T10:09:56.306Z,94.3
2022-12-23T10:12:56.484Z,94.3
2022-12-23T10:15:53.168Z,94.3
2022-12-23T10:18:56.996Z,94.3
2022-12-23T10:22:05.043Z,94.3
2022-12-23T10:24:52.412Z,94.3
2022-12-23T10:27:53.791Z,94.3
2022-12-23T10:31:42.319Z,94.3
2022-12-23T10:33:53.125Z,94.3
2022-12-23T10:36:55.006Z,94.3
2022-12-23T10:39:53.507Z,94.3
2022-12-23T10:42:53.677Z,94.3
2022-12-23T10:45:55.067Z,94.3
2022-12-23T10:48:54.162Z,94.3
2022-12-23T10:51:54.499Z,94.3
2022-12-23T10:54:55.706Z,94.2
2022-12-23T10:57:54.969Z,94.2
2022-12-23T11:00:55.635Z,94.2
2022-12-23T11:03:56.674Z,94.3
2022-12-23T11:07:46.911Z,94.3
2022-12-23T11:09:55.838Z,94.3
2022-12-23T11:12:56.092Z,94.3
2022-12-23T11:15:57.585Z,94.3
2022-12-23T11:18:56.493Z,94.3
2022-12-23T11:21:51.675Z,94.3
2022-12-23T11:24:58.070Z,94.2
2022-12-23T11:27:52.984Z,94.2
2022-12-23T11:30:57.571Z,94.2
2022-12-23T11:33:53.777Z,94.1
2022-12-23T11:37:08.089Z,94.1
2022-12-23T11:39:53.037Z,94.1
2022-12-23T11:42:56.907Z,94.1
2022-12-23T11:45:53.795Z,94.1
2022-12-23T11:48:55.497Z,94.1
2022-12-23T11:51:54.020Z,94.1
2022-12-23T11:54:56.474Z,93.9
2022-12-23T11:57:54.389Z,93.9
2022-12-23T12:00:56.868Z,93.9
2022-12-23T12:03:56.284Z,93.8
2022-12-23T12:06:57.397Z,93.8
2022-12-23T12:09:55.396Z,93.8
2022-12-23T12:12:56.817Z,93.7
2022-12-23T12:15:55.868Z,93.7
2022-12-23T12:18:56.556Z,93.7
2022-12-23T12:21:57.373Z,93.6
2022-12-23T12:24:51.567Z,93.6
2022-12-23T12:27:51.741Z,93.6
2022-12-23T12:30:52.344Z,93.6
2022-12-23T12:33:54.160Z,93.4
2022-12-23T12:36:53.053Z,93.4
2022-12-23T12:39:57.680Z,93.4
2022-12-23T12:42:54.038Z,93.3
2022-12-23T12:45:53.490Z,93.3
2022-12-23T12:48:53.290Z,93.3
2022-12-23T12:51:54.634Z,93.2
2022-12-23T12:54:53.677Z,93.2
2022-12-23T12:57:54.062Z,93.2
2022-12-23T13:00:55.640Z,93.2
2022-12-23T13:03:54.512Z,93.2
2022-12-23T13:06:54.732Z,93.2
2022-12-23T13:09:54.875Z,93.2
2022-12-23T13:12:56.189Z,93.2
2022-12-23T13:15:55.405Z,93.2
2022-12-23T13:18:55.503Z,93.2
2022-12-23T13:21:56.947Z,93.2
2022-12-23T13:24:56.105Z,93.2
2022-12-23T13:27:51.412Z,93.2
2022-12-23T13:30:57.828Z,93.1
2022-12-23T13:33:56.681Z,93.1
2022-12-23T13:36:52.316Z,93.1
2022-12-23T13:39:53.959Z,93
2022-12-23T13:42:52.329Z,93
2022-12-23T13:45:52.810Z,93
2022-12-23T13:48:52.825Z,93
2022-12-23T13:51:54.272Z,93
2022-12-23T13:54:53.209Z,93
2022-12-23T13:57:53.456Z,93
2022-12-23T14:00:54.873Z,93
2022-12-23T14:03:54.028Z,93
2022-12-23T14:06:54.279Z,93
2022-12-23T14:09:55.488Z,93
2022-12-23T14:12:54.621Z,93
2022-12-23T14:15:55.215Z,93
2022-12-23T14:18:56.263Z,93
2022-12-23T14:21:55.458Z,93
2022-12-23T14:24:55.545Z,93
2022-12-23T14:27:55.807Z,93
2022-12-23T14:30:57.436Z,92.9
2022-12-23T14:33:56.210Z,92.9
2022-12-23T14:36:56.508Z,92.9
2022-12-23T14:39:57.863Z,92.9
2022-12-23T14:42:52.023Z,92.9
2022-12-23T14:45:52.195Z,92.9
2022-12-23T14:49:42.254Z,93
2022-12-23T14:51:52.660Z,93
2022-12-23T14:55:33.319Z,93
2022-12-23T14:57:54.090Z,93.1
2022-12-23T15:00:53.262Z,93.1
2022-12-23T15:04:02.431Z,93.1
2022-12-23T15:06:53.773Z,93.1
2022-12-23T15:10:03.327Z,93.1
2022-12-23T15:12:54.161Z,93.1
2022-12-23T15:16:02.932Z,93.1
2022-12-23T15:18:55.683Z,93.1
2022-12-23T15:22:32.667Z,93.1
2022-12-23T15:24:55.060Z,93.1
2022-12-23T15:28:04.304Z,93.2
2022-12-23T15:31:01.908Z,93.2
2022-12-23T15:34:17.721Z,93.2
2022-12-23T15:36:57.085Z,93.2
2022-12-23T15:40:14.134Z,93.2
2022-12-23T15:42:56.533Z,93.2
2022-12-23T15:45:51.776Z,93.2
2022-12-23T15:48:53.432Z,93.2
2022-12-23T15:52:20.961Z,93.2
2022-12-23T15:54:53.331Z,93.2
2022-12-23T15:57:53.838Z,93.2
2022-12-23T16:01:02.845Z,93.2
2022-12-23T16:03:53.942Z,93.2
2022-12-23T16:06:54.460Z,93.2
2022-12-23T16:09:53.529Z,93.2
2022-12-23T16:12:53.665Z,93.2
2022-12-23T16:15:55.185Z,93.3
2022-12-23T16:18:54.078Z,93.3
2022-12-23T16:21:54.353Z,93.3
2022-12-23T16:24:54.488Z,93.3
2022-12-23T16:27:55.847Z,93.4
2022-12-23T16:30:55.000Z,93.4
2022-12-23T16:33:55.181Z,93.4
2022-12-23T16:36:56.596Z,93.5
2022-12-23T16:39:55.762Z,93.5
2022-12-23T16:42:55.905Z,93.5
2022-12-23T16:45:57.655Z,93.7
2022-12-23T16:48:51.433Z,93.7
2022-12-23T16:51:56.622Z,93.7
2022-12-23T16:54:54.132Z,93.8
2022-12-23T16:57:52.860Z,93.8
2022-12-23T17:00:53.259Z,93.8
2022-12-23T17:03:52.426Z,93.8
2022-12-23T17:06:54.002Z,94
2022-12-23T17:09:52.924Z,94
2022-12-23T17:12:53.188Z,94
2022-12-23T17:15:54.443Z,94.2
2022-12-23T17:18:54.030Z,94.2
2022-12-23T17:21:53.858Z,94.2
2022-12-23T17:24:55.159Z,94.3
2022-12-23T17:27:54.261Z,94.3
2022-12-23T17:30:54.523Z,94.3
2022-12-23T17:33:55.961Z,94.4
2022-12-23T17:36:55.268Z,94.4
2022-12-23T17:39:55.264Z,94.4
2022-12-23T17:42:55.521Z,94.4
2022-12-23T17:45:57.080Z,94.5
2022-12-23T17:48:55.895Z,94.5
2022-12-23T17:51:56.170Z,94.5
2022-12-23T17:54:57.451Z,94.4
2022-12-23T17:57:51.565Z,94.4
2022-12-23T18:00:52.013Z,94.4
2022-12-23T18:03:53.053Z,94.4
2022-12-23T18:06:52.221Z,94.4
2022-12-23T18:09:52.775Z,94.4
2022-12-23T18:13:03.707Z,94.4
2022-12-23T18:15:52.997Z,94.4
2022-12-23T18:18:53.260Z,94.4
2022-12-23T18:21:53.499Z,94.4
2022-12-23T18:25:00.855Z,94.3
2022-12-23T18:27:53.919Z,94.3
2022-12-23T18:30:54.221Z,94.3
2022-12-23T18:33:55.448Z,94.2
2022-12-23T18:36:54.849Z,94.2
2022-12-23T18:39:54.835Z,94.2
2022-12-23T18:42:56.076Z,94.1
2022-12-23T18:45:55.491Z,94.1
2022-12-23T18:48:55.445Z,94.1
2022-12-23T18:51:56.753Z,94
2022-12-23T18:54:55.910Z,94
2022-12-23T18:57:56.157Z,94
2022-12-23T19:01:01.421Z,94
2022-12-23T19:03:57.634Z,94
2022-12-23T19:06:56.940Z,94
2022-12-23T19:09:51.943Z,94
2022-12-23T19:12:53.248Z,93.9
2022-12-23T19:15:52.722Z,93.9
2022-12-23T19:18:53.129Z,93.9
2022-12-23T19:21:54.193Z,93.9
2022-12-23T19:25:07.140Z,93.9
2022-12-23T19:27:53.326Z,93.9
2022-12-23T19:30:54.851Z,93.9
2022-12-23T19:33:53.897Z,93.9
2022-12-23T19:36:54.097Z,93.9
2022-12-23T19:39:54.302Z,93.9
2022-12-23T19:42:55.617Z,93.8
2022-12-23T19:45:54.913Z,93.8
2022-12-23T19:48:55.004Z,93.8
2022-12-23T19:51:56.333Z,93.8
2022-12-23T19:54:55.377Z,93.8
2022-12-23T19:57:55.617Z,93.8
2022-12-23T20:00:56.924Z,93.7
2022-12-23T20:03:56.057Z,93.7
2022-12-23T20:06:56.439Z,93.7
2022-12-23T20:09:52.602Z,93.7
2022-12-23T20:12:56.747Z,93.7
2022-12-23T20:15:53.320Z,93.7
2022-12-23T20:18:52.306Z,93.7
2022-12-23T20:21:53.593Z,93.5
2022-12-23T20:24:52.690Z,93.5
2022-12-23T20:27:52.867Z,93.5
2022-12-23T20:30:54.307Z,93.4
2022-12-23T20:33:53.336Z,93.4
2022-12-23T20:36:53.621Z,93.4
2022-12-23T20:39:54.890Z,93.1
2022-12-23T20:42:54.013Z,93.1
2022-12-23T20:45:54.273Z,93.1
2022-12-23T20:48:55.585Z,92.8
2022-12-23T20:51:54.785Z,92.8
2022-12-23T20:54:54.954Z,92.8
2022-12-23T20:57:56.326Z,92.5
2022-12-23T21:00:55.420Z,92.5
2022-12-23T21:03:55.657Z,92.5
2022-12-23T21:06:55.836Z,92.5
2022-12-23T21:09:57.318Z,92.3
2022-12-23T21:12:56.381Z,92.3
2022-12-23T21:15:51.803Z,92.3
2022-12-23T21:18:52.847Z,92
2022-12-23T21:21:51.979Z,92
2022-12-23T21:24:52.183Z,92
2022-12-23T21:27:53.593Z,91.8
2022-12-23T21:30:53.573Z,91.8
2022-12-23T21:33:52.874Z,91.8
2022-12-23T21:36:54.661Z,91.6
2022-12-23T21:39:53.430Z,91.6
2022-12-23T21:42:53.629Z,91.6
2022-12-23T21:45:53.882Z,91.6
2022-12-23T21:48:55.119Z,91.4
2022-12-23T21:51:54.250Z,91.4
2022-12-23T21:54:54.637Z,91.4
2022-12-23T21:57:55.891Z,91.5
2022-12-23T22:00:55.283Z,91.5
2022-12-23T22:03:55.151Z,91.5
2022-12-23T22:06:56.472Z,91.6
2022-12-23T22:09:55.671Z,91.6
2022-12-23T22:12:55.869Z,91.6
2022-12-23T22:15:57.417Z,91.7
2022-12-23T22:18:56.308Z,91.7
2022-12-23T22:21:56.506Z,91.7
2022-12-23T22:24:51.810Z,91.7
2022-12-23T22:27:53.192Z,91.8
2022-12-23T22:30:52.185Z,91.8
2022-12-23T22:33:52.482Z,91.8
2022-12-23T22:36:58.853Z,92
2022-12-23T22:39:52.930Z,92
2022-12-23T22:42:53.191Z,92
2022-12-23T22:45:55.060Z,92.1
2022-12-23T22:48:53.663Z,92.1
2022-12-23T22:51:53.866Z,92.1
2022-12-23T22:54:55.123Z,92.3
2022-12-23T22:57:54.229Z,92.3
2022-12-23T23:00:54.629Z,92.3
2022-12-23T23:03:54.759Z,92.3
2022-12-23T23:06:56.081Z,92.4
2022-12-23T23:09:55.163Z,92.4
2022-12-23T23:12:55.400Z,92.4
2022-12-23T23:15:56.786Z,92.5
2022-12-23T23:18:55.959Z,92.5
2022-12-23T23:21:56.148Z,92.5
2022-12-23T23:24:52.353Z,92.6
2022-12-23T23:27:51.504Z,92.6
2022-12-23T23:31:44.213Z,92.6
2022-12-23T23:33:53.123Z,92.6
2022-12-23T23:36:52.188Z,92.6
2022-12-23T23:39:52.473Z,92.6
2022-12-23T23:42:52.732Z,92.6
2022-12-23T23:45:54.397Z,92.7
2022-12-23T23:48:53.157Z,92.7
2022-12-23T23:51:53.399Z,92.7
2022-12-23T23:54:54.629Z,92.8
2022-12-23T23:57:53.784Z,92.8
